createdAt,value
2022-09-20T00:04:40.243Z,95.83
2022-09-20T00:09:41.316Z,95.60
2022-09-20T00:14:42.452Z,95.66
2022-09-20T00:19:43.449Z,95.53
2022-09-20T00:24:48.864Z,95.53
2022-09-20T00:29:50.313Z,95.70
2022-09-20T00:35:09.732Z,95.35
2022-09-20T00:40:17.209Z,95.64
2022-09-20T00:45:22.860Z,95.79
2022-09-20T00:50:41.656Z,96.16
2022-09-20T00:55:48.129Z,95.96
2022-09-20T01:00:54.057Z,95.92
2022-09-20T01:05:55.429Z,96.03
2022-09-20T01:10:56.831Z,95.87
2022-09-20T01:15:59.739Z,95.74
2022-09-20T01:21:02.851Z,95.69
2022-09-20T01:26:25.967Z,95.94
2022-09-20T01:31:40.164Z,96.16
2022-09-20T01:37:03.278Z,95.92
2022-09-20T01:42:07.463Z,96.08
2022-09-20T01:47:24.134Z,95.97
2022-09-20T01:52:34.507Z,95.72
2022-09-20T01:57:57.521Z,96.00
2022-09-20T02:03:07.828Z,96.05
2022-09-20T02:08:27.477Z,95.80
2022-09-20T02:13:44.836Z,95.46
2022-09-20T02:19:20.259Z,95.85
2022-09-20T02:25:06.650Z,95.85
2022-09-20T02:30:32.885Z,95.93
2022-09-20T02:36:03.767Z,95.86
2022-09-20T02:41:26.576Z,95.95
2022-09-20T02:46:49.752Z,96.09
2022-09-20T02:52:03.800Z,96.10
2022-09-20T02:57:50.201Z,95.89
2022-09-20T03:03:29.150Z,95.91
2022-09-20T03:08:43.683Z,95.95
2022-09-20T03:14:02.166Z,96.14
2022-09-20T03:19:23.558Z,96.04
2022-09-20T03:24:31.052Z,95.81
2022-09-20T03:29:50.680Z,95.88
2022-09-20T03:34:57.875Z,95.78
2022-09-20T03:40:23.964Z,95.49
2022-09-20T03:45:40.484Z,95.92
2022-09-20T03:51:21.909Z,95.83
2022-09-20T03:56:28.696Z,96.12
2022-09-20T04:01:51.718Z,96.10
2022-09-20T04:07:22.901Z,96.29
2022-09-20T04:12:51.988Z,96.32
2022-09-20T04:18:22.943Z,96.49
2022-09-20T04:23:40.843Z,96.47
2022-09-20T04:28:54.481Z,96.52
2022-09-20T04:33:58.841Z,96.47
2022-09-20T04:39:30.305Z,96.63
2022-09-20T04:44:45.236Z,96.38
2022-09-20T04:50:07.017Z,96.23
2022-09-20T04:55:34.430Z,96.00
2022-09-20T05:01:17.966Z,95.53
2022-09-20T05:06:56.600Z,95.63
2022-09-20T05:12:33.679Z,95.27
2022-09-20T05:18:00.065Z,95.43
2022-09-20T05:23:20.332Z,94.98
2022-09-20T05:28:41.753Z,95.07
2022-09-20T05:34:15.759Z,94.90
2022-09-20T05:39:44.884Z,94.40
2022-09-20T05:45:04.781Z,93.42
2022-09-20T05:50:17.945Z,93.16
2022-09-20T05:55:31.194Z,93.12
2022-09-20T06:00:41.086Z,92.70
2022-09-20T06:06:04.115Z,92.35
2022-09-20T06:11:28.651Z,91.84
2022-09-20T06:16:48.683Z,91.36
2022-09-20T06:21:53.572Z,90.52
2022-09-20T06:26:58.915Z,89.55
2022-09-20T06:32:00.576Z,88.40
2022-09-20T06:37:32.017Z,88.22
2022-09-20T06:42:33.122Z,87.63
2022-09-20T06:47:38.112Z,86.48
2022-09-20T06:52:42.119Z,85.67
2022-09-20T06:57:43.623Z,85.00
2022-09-20T07:02:45.893Z,84.90
2022-09-20T07:07:47.426Z,85.33
2022-09-20T07:12:49.028Z,83.79
2022-09-20T07:17:51.191Z,80.58
2022-09-20T07:22:52.959Z,75.92
2022-09-20T07:27:54.166Z,71.59
2022-09-20T07:32:55.318Z,69.16
2022-09-20T07:37:57.642Z,68.20
2022-09-20T07:42:58.878Z,66.92
2022-09-20T07:48:04.443Z,63.12
2022-09-20T07:53:05.806Z,63.84
2022-09-20T07:58:06.944Z,65.14
2022-09-20T08:03:08.378Z,63.54
2022-09-20T08:08:10.929Z,62.27
2022-09-20T08:18:34.820Z,63.45
2022-09-20T08:23:37.997Z,62.98
2022-09-20T08:28:40.232Z,64.24
2022-09-20T08:33:42.486Z,63.32
2022-09-20T08:44:16.284Z,60.58
2022-09-20T08:49:36.930Z,60.56
2022-09-20T08:54:40.883Z,60.49
2022-09-20T08:59:42.890Z,62.14
2022-09-20T09:04:45.472Z,63.20
2022-09-20T09:09:49.716Z,64.77
2022-09-20T09:14:57.434Z,64.09
2022-09-20T09:20:23.595Z,62.17
2022-09-20T09:25:31.463Z,60.67
2022-09-20T09:30:35.505Z,62.37
2022-09-20T09:35:36.760Z,63.63
2022-09-20T09:40:50.058Z,63.44
2022-09-20T09:45:51.252Z,61.63
2022-09-20T09:51:14.589Z,61.56
2022-09-20T09:56:22.932Z,62.22
2022-09-20T10:02:00.107Z,62.46
2022-09-20T10:07:34.843Z,60.11
2022-09-20T10:12:44.965Z,58.92
2022-09-20T10:17:52.068Z,61.06
2022-09-20T10:23:51.562Z,61.51
2022-09-20T10:29:10.511Z,60.56
2022-09-20T10:34:21.110Z,61.00
2022-09-20T10:39:26.173Z,61.15
2022-09-20T10:44:43.218Z,59.01
2022-09-20T10:50:07.055Z,60.74
2022-09-20T10:55:21.305Z,63.07
2022-09-20T11:01:01.699Z,63.61
2022-09-20T11:06:21.579Z,64.32
2022-09-20T11:11:41.087Z,63.86
2022-09-20T11:16:50.342Z,63.97
2022-09-20T11:22:12.514Z,64.76
2022-09-20T11:27:24.493Z,64.93
2022-09-20T11:32:48.760Z,64.32
2022-09-20T11:38:18.034Z,63.88
2022-09-20T11:43:21.730Z,64.71
2022-09-20T11:48:35.743Z,65.86
2022-09-20T11:54:15.389Z,66.43
2022-09-20T11:59:39.659Z,66.99
2022-09-20T12:04:45.150Z,66.65
2022-09-20T12:09:55.832Z,66.34
2022-09-20T12:14:58.628Z,66.76
2022-09-20T12:20:00.364Z,66.80
2022-09-20T12:25:39.303Z,66.82
2022-09-20T12:30:40.477Z,67.26
2022-09-20T12:36:13.456Z,68.00
2022-09-20T12:41:27.612Z,68.25
2022-09-20T12:47:07.717Z,68.60
2022-09-20T12:52:49.000Z,68.72
2022-09-20T12:57:57.748Z,68.77
2022-09-20T13:03:01.711Z,67.55
2022-09-20T13:08:17.116Z,64.43
2022-09-20T13:13:31.271Z,64.68
2022-09-20T13:18:35.417Z,65.17
2022-09-20T13:23:49.229Z,65.07
2022-09-20T13:28:53.892Z,65.49
2022-09-20T13:34:12.028Z,65.61
2022-09-20T13:39:25.445Z,64.46
2022-09-20T13:44:27.133Z,63.35
2022-09-20T13:49:31.544Z,62.56
2022-09-20T13:54:33.118Z,61.86
2022-09-20T13:59:44.567Z,61.89
2022-09-20T14:04:46.331Z,62.49
2022-09-20T14:09:47.443Z,63.91
2022-09-20T14:14:50.475Z,65.16
2022-09-20T14:19:54.107Z,66.31
2022-09-20T14:24:58.709Z,66.85
2022-09-20T14:29:59.895Z,67.70
2022-09-20T14:35:04.308Z,68.33
2022-09-20T14:40:23.547Z,68.76
2022-09-20T14:45:33.788Z,69.57
2022-09-20T14:50:38.483Z,69.99
2022-09-20T14:56:01.074Z,69.27
2022-09-20T15:01:23.605Z,69.05
2022-09-20T15:06:25.059Z,69.42
2022-09-20T15:11:28.578Z,70.09
2022-09-20T15:16:30.149Z,70.22
2022-09-20T15:21:31.484Z,70.62
2022-09-20T15:26:33.728Z,71.12
2022-09-20T15:31:34.860Z,71.21
2022-09-20T15:36:36.021Z,70.46
2022-09-20T15:41:37.840Z,70.38
2022-09-20T15:46:40.918Z,71.25
2022-09-20T15:51:42.174Z,72.26
2022-09-20T15:56:43.580Z,73.14
2022-09-20T16:01:48.337Z,74.20
2022-09-20T16:06:49.950Z,75.27
2022-09-20T16:11:58.287Z,76.15
2022-09-20T16:16:59.482Z,77.04
2022-09-20T16:22:01.224Z,77.46
2022-09-20T16:27:06.779Z,77.96
2022-09-20T16:32:08.015Z,78.58
2022-09-20T16:37:15.062Z,79.08
2022-09-20T16:42:18.674Z,79.59
2022-09-20T16:47:22.569Z,80.04
2022-09-20T16:52:25.837Z,80.51
2022-09-20T16:57:27.220Z,80.79
2022-09-20T17:02:31.600Z,81.20
2022-09-20T17:07:32.914Z,81.55
2022-09-20T17:12:40.840Z,82.04
2022-09-20T17:17:42.015Z,82.45
2022-09-20T17:22:43.014Z,82.86
2022-09-20T17:27:44.865Z,83.11
2022-09-20T17:32:49.866Z,83.49
2022-09-20T17:37:51.085Z,84.05
2022-09-20T17:42:52.238Z,84.30
2022-09-20T17:47:54.917Z,84.65
2022-09-20T17:52:56.018Z,85.04
2022-09-20T17:57:57.199Z,85.42
2022-09-20T18:03:04.074Z,85.86
2022-09-20T18:08:06.067Z,86.07
2022-09-20T18:13:07.270Z,86.48
2022-09-20T18:18:09.572Z,86.57
2022-09-20T18:23:10.925Z,86.78
2022-09-20T18:28:13.369Z,87.34
2022-09-20T18:33:17.266Z,87.46
2022-09-20T18:38:18.387Z,87.98
2022-09-20T18:43:19.431Z,88.34
2022-09-20T18:48:23.998Z,88.62
2022-09-20T18:53:30.107Z,88.84
2022-09-20T18:58:31.558Z,89.07
2022-09-20T19:03:53.162Z,89.37
2022-09-20T19:09:21.948Z,89.54
2022-09-20T19:15:02.096Z,90.05
2022-09-20T19:20:12.941Z,90.45
2022-09-20T19:25:30.074Z,90.48
2022-09-20T19:30:32.483Z,90.69
2022-09-20T19:35:40.162Z,90.97
2022-09-20T19:40:58.863Z,91.27
2022-09-20T19:46:23.355Z,91.49
2022-09-20T19:51:25.420Z,91.45
2022-09-20T19:56:28.902Z,91.54
2022-09-20T20:01:30.586Z,91.42
2022-09-20T20:06:58.307Z,91.47
2022-09-20T20:12:14.043Z,91.37
2022-09-20T20:17:52.750Z,91.49
2022-09-20T20:23:15.846Z,91.69
2022-09-20T20:28:17.001Z,91.92
2022-09-20T20:33:18.705Z,91.90
2022-09-20T20:38:20.823Z,91.90
2022-09-20T20:43:22.038Z,91.89
2022-09-20T20:48:23.472Z,92.02
2022-09-20T20:53:24.605Z,92.16
2022-09-20T20:58:27.848Z,92.18
2022-09-20T21:03:29.901Z,92.32
2022-09-20T21:08:35.579Z,92.35
2022-09-20T21:13:38.701Z,92.74
2022-09-20T21:18:42.446Z,93.02
2022-09-20T21:23:45.749Z,93.34
2022-09-20T21:28:52.252Z,93.32
2022-09-20T21:33:53.432Z,93.51
2022-09-20T21:38:56.363Z,93.41
2022-09-20T21:43:59.604Z,93.28
2022-09-20T21:49:03.635Z,93.34
2022-09-20T21:54:05.146Z,93.44
2022-09-20T21:59:07.108Z,93.66
2022-09-20T22:04:10.895Z,93.80
2022-09-20T22:09:15.174Z,93.82
2022-09-20T22:14:18.679Z,94.13
2022-09-20T22:19:20.114Z,94.30
2022-09-20T22:24:21.142Z,94.55
2022-09-20T22:29:22.319Z,94.71
2022-09-20T22:34:24.588Z,94.85
2022-09-20T22:39:25.725Z,95.09
2022-09-20T22:44:26.748Z,95.20
2022-09-20T22:49:27.878Z,95.15
2022-09-20T22:54:28.976Z,95.48
2022-09-20T22:59:30.251Z,95.69
2022-09-20T23:04:31.315Z,95.73
2022-09-20T23:09:32.470Z,95.77
2022-09-20T23:14:33.522Z,96.25
2022-09-20T23:19:34.735Z,96.22
2022-09-20T23:24:35.917Z,96.25
2022-09-20T23:29:37.248Z,96.39
2022-09-20T23:34:38.246Z,96.32
2022-09-20T23:39:40.793Z,96.30
2022-09-20T23:44:42.061Z,96.49
2022-09-20T23:49:43.202Z,96.75
2022-09-20T23:54:44.229Z,96.91
2022-09-20T23:59:45.319Z,96.91
